sensor_id;sensor_type;location;lat;lon;timestamp;temperature;humidity
30097;DHT22;16915;51.466;3.610;2023-07-31T00:02:17;16.50;99.90
30097;DHT22;16915;51.466;3.610;2023-07-31T00:04:42;16.50;99.90
30097;DHT22;16915;51.466;3.610;2023-07-31T00:07:08;16.50;99.90
30097;DHT22;16915;51.466;3.610;2023-07-31T00:09:34;16.60;99.90
30097;DHT22;16915;51.466;3.610;2023-07-31T00:11:59;16.50;99.90
30097;DHT22;16915;51.466;3.610;2023-07-31T00:14:25;16.50;99.90
30097;DHT22;16915;51.466;3.610;2023-07-31T00:16:51;16.50;99.90
30097;DHT22;16915;51.466;3.610;2023-07-31T00:19:16;16.50;99.90
30097;DHT22;16915;51.466;3.610;2023-07-31T00:21:42;16.50;99.90
30097;DHT22;16915;51.466;3.610;2023-07-31T00:24:08;16.50;99.90
30097;DHT22;16915;51.466;3.610;2023-07-31T00:26:33;16.50;99.90
30097;DHT22;16915;51.466;3.610;2023-07-31T00:28:59;16.50;99.90
30097;DHT22;16915;51.466;3.610;2023-07-31T00:31:24;16.50;99.90
30097;DHT22;16915;51.466;3.610;2023-07-31T00:33:50;16.50;99.90
30097;DHT22;16915;51.466;3.610;2023-07-31T00:36:15;16.50;99.90
30097;DHT22;16915;51.466;3.610;2023-07-31T00:38:41;16.50;99.90
30097;DHT22;16915;51.466;3.610;2023-07-31T00:41:06;16.50;99.90
30097;DHT22;16915;51.466;3.610;2023-07-31T00:43:32;16.50;99.90
30097;DHT22;16915;51.466;3.610;2023-07-31T00:45:58;16.50;99.90
30097;DHT22;16915;51.466;3.610;2023-07-31T00:48:23;16.50;99.90
30097;DHT22;16915;51.466;3.610;2023-07-31T00:50:50;16.50;99.90
30097;DHT22;16915;51.466;3.610;2023-07-31T00:53:15;16.50;99.90
30097;DHT22;16915;51.466;3.610;2023-07-31T00:55:41;16.50;99.90
30097;DHT22;16915;51.466;3.610;2023-07-31T00:58:07;16.50;99.90
30097;DHT22;16915;51.466;3.610;2023-07-31T01:00:33;16.50;99.90
30097;DHT22;16915;51.466;3.610;2023-07-31T01:02:59;16.50;99.90
30097;DHT22;16915;51.466;3.610;2023-07-31T01:05:48;16.50;99.90
30097;DHT22;16915;51.466;3.610;2023-07-31T01:11:10;16.50;99.90
30097;DHT22;16915;51.466;3.610;2023-07-31T01:13:39;16.50;99.90
30097;DHT22;16915;51.466;3.610;2023-07-31T01:16:04;16.50;99.90
30097;DHT22;16915;51.466;3.610;2023-07-31T01:18:30;16.50;99.90
30097;DHT22;16915;51.466;3.610;2023-07-31T01:21:03;16.50;99.90
30097;DHT22;16915;51.466;3.610;2023-07-31T01:23:40;16.50;99.90
30097;DHT22;16915;51.466;3.610;2023-07-31T01:26:23;16.50;99.90
30097;DHT22;16915;51.466;3.610;2023-07-31T01:29:03;16.50;99.90
30097;DHT22;16915;51.466;3.610;2023-07-31T01:31:32;16.50;99.90
30097;DHT22;16915;51.466;3.610;2023-07-31T01:34:00;16.50;99.90
30097;DHT22;16915;51.466;3.610;2023-07-31T01:36:27;16.50;99.90
30097;DHT22;16915;51.466;3.610;2023-07-31T01:38:53;16.50;99.90
30097;DHT22;16915;51.466;3.610;2023-07-31T01:41:22;16.50;99.90
30097;DHT22;16915;51.466;3.610;2023-07-31T01:43:48;16.50;99.90
30097;DHT22;16915;51.466;3.610;2023-07-31T01:46:14;16.50;99.90
30097;DHT22;16915;51.466;3.610;2023-07-31T01:48:39;16.50;99.90
30097;DHT22;16915;51.466;3.610;2023-07-31T01:51:05;16.50;99.90
30097;DHT22;16915;51.466;3.610;2023-07-31T01:53:31;16.50;99.90
30097;DHT22;16915;51.466;3.610;2023-07-31T01:55:57;16.50;99.90
30097;DHT22;16915;51.466;3.610;2023-07-31T01:58:22;16.50;99.90
30097;DHT22;16915;51.466;3.610;2023-07-31T02:00:48;16.40;99.90
30097;DHT22;16915;51.466;3.610;2023-07-31T02:03:14;16.50;99.90
30097;DHT22;16915;51.466;3.610;2023-07-31T02:05:49;16.40;99.90
30097;DHT22;16915;51.466;3.610;2023-07-31T02:08:16;16.40;99.90
30097;DHT22;16915;51.466;3.610;2023-07-31T02:10:41;16.40;99.90
30097;DHT22;16915;51.466;3.610;2023-07-31T02:13:07;16.40;99.90
30097;DHT22;16915;51.466;3.610;2023-07-31T02:15:33;16.40;99.90
30097;DHT22;16915;51.466;3.610;2023-07-31T02:17:59;16.40;99.90
30097;DHT22;16915;51.466;3.610;2023-07-31T02:20:24;16.40;99.90
30097;DHT22;16915;51.466;3.610;2023-07-31T02:22:50;16.50;99.90
30097;DHT22;16915;51.466;3.610;2023-07-31T02:25:15;16.40;99.90
30097;DHT22;16915;51.466;3.610;2023-07-31T02:27:41;16.40;99.90
30097;DHT22;16915;51.466;3.610;2023-07-31T02:30:07;16.50;99.90
30097;DHT22;16915;51.466;3.610;2023-07-31T02:32:33;16.40;99.90
30097;DHT22;16915;51.466;3.610;2023-07-31T02:34:59;16.40;99.90
30097;DHT22;16915;51.466;3.610;2023-07-31T02:37:25;16.40;99.90
30097;DHT22;16915;51.466;3.610;2023-07-31T02:39:50;16.30;99.90
30097;DHT22;16915;51.466;3.610;2023-07-31T02:42:16;16.30;99.90
30097;DHT22;16915;51.466;3.610;2023-07-31T02:44:42;16.30;99.90
30097;DHT22;16915;51.466;3.610;2023-07-31T02:47:07;16.20;99.90
30097;DHT22;16915;51.466;3.610;2023-07-31T02:49:33;16.20;99.90
30097;DHT22;16915;51.466;3.610;2023-07-31T02:51:58;16.20;99.90
30097;DHT22;16915;51.466;3.610;2023-07-31T02:54:24;16.20;99.90
30097;DHT22;16915;51.466;3.610;2023-07-31T02:56:50;16.20;99.90
30097;DHT22;16915;51.466;3.610;2023-07-31T02:59:16;16.10;99.90
30097;DHT22;16915;51.466;3.610;2023-07-31T03:01:42;16.10;99.90
30097;DHT22;16915;51.466;3.610;2023-07-31T03:04:07;16.10;99.90
30097;DHT22;16915;51.466;3.610;2023-07-31T03:06:33;16.10;99.90
30097;DHT22;16915;51.466;3.610;2023-07-31T03:08:58;16.00;99.90
30097;DHT22;16915;51.466;3.610;2023-07-31T03:11:24;16.00;99.90
30097;DHT22;16915;51.466;3.610;2023-07-31T03:13:50;16.00;99.90
30097;DHT22;16915;51.466;3.610;2023-07-31T03:16:15;16.00;99.90
30097;DHT22;16915;51.466;3.610;2023-07-31T03:18:41;16.10;99.90
30097;DHT22;16915;51.466;3.610;2023-07-31T03:21:06;16.10;99.90
30097;DHT22;16915;51.466;3.610;2023-07-31T03:23:32;16.10;99.90
30097;DHT22;16915;51.466;3.610;2023-07-31T03:26:02;16.00;99.90
30097;DHT22;16915;51.466;3.610;2023-07-31T03:28:29;16.00;99.90
30097;DHT22;16915;51.466;3.610;2023-07-31T03:30:55;16.10;99.90
30097;DHT22;16915;51.466;3.610;2023-07-31T03:33:21;16.00;99.90
30097;DHT22;16915;51.466;3.610;2023-07-31T03:35:47;16.00;99.90
30097;DHT22;16915;51.466;3.610;2023-07-31T03:38:12;15.90;99.90
30097;DHT22;16915;51.466;3.610;2023-07-31T03:40:38;16.00;99.90
30097;DHT22;16915;51.466;3.610;2023-07-31T03:43:05;15.90;99.90
30097;DHT22;16915;51.466;3.610;2023-07-31T03:45:30;15.90;99.90
30097;DHT22;16915;51.466;3.610;2023-07-31T03:47:56;15.90;99.90
30097;DHT22;16915;51.466;3.610;2023-07-31T03:50:22;15.90;99.90
30097;DHT22;16915;51.466;3.610;2023-07-31T03:52:47;15.90;99.90
30097;DHT22;16915;51.466;3.610;2023-07-31T03:55:13;15.90;99.90
30097;DHT22;16915;51.466;3.610;2023-07-31T03:57:39;15.90;99.90
30097;DHT22;16915;51.466;3.610;2023-07-31T04:00:05;15.90;99.90
30097;DHT22;16915;51.466;3.610;2023-07-31T04:02:30;15.90;99.90
30097;DHT22;16915;51.466;3.610;2023-07-31T04:04:56;15.90;99.90
30097;DHT22;16915;51.466;3.610;2023-07-31T04:07:22;15.80;99.90
30097;DHT22;16915;51.466;3.610;2023-07-31T04:09:47;15.90;99.90
30097;DHT22;16915;51.466;3.610;2023-07-31T04:12:13;15.90;99.90
30097;DHT22;16915;51.466;3.610;2023-07-31T04:14:38;15.90;99.90
30097;DHT22;16915;51.466;3.610;2023-07-31T04:17:04;15.80;99.90
30097;DHT22;16915;51.466;3.610;2023-07-31T04:19:30;15.80;99.90
30097;DHT22;16915;51.466;3.610;2023-07-31T04:21:55;15.80;99.90
30097;DHT22;16915;51.466;3.610;2023-07-31T04:24:21;15.80;99.90
30097;DHT22;16915;51.466;3.610;2023-07-31T04:26:53;15.90;99.90
30097;DHT22;16915;51.466;3.610;2023-07-31T04:29:19;15.90;99.90
30097;DHT22;16915;51.466;3.610;2023-07-31T04:31:45;15.90;99.90
30097;DHT22;16915;51.466;3.610;2023-07-31T04:34:10;15.90;99.90
30097;DHT22;16915;51.466;3.610;2023-07-31T04:36:37;15.90;99.90
30097;DHT22;16915;51.466;3.610;2023-07-31T04:39:03;15.90;99.90
30097;DHT22;16915;51.466;3.610;2023-07-31T04:41:28;15.90;99.90
30097;DHT22;16915;51.466;3.610;2023-07-31T04:43:54;16.00;99.90
30097;DHT22;16915;51.466;3.610;2023-07-31T04:46:19;15.90;99.90
30097;DHT22;16915;51.466;3.610;2023-07-31T04:48:45;16.00;99.90
30097;DHT22;16915;51.466;3.610;2023-07-31T04:51:11;16.00;99.90
30097;DHT22;16915;51.466;3.610;2023-07-31T04:53:36;16.00;99.90
30097;DHT22;16915;51.466;3.610;2023-07-31T04:56:02;16.00;99.90
30097;DHT22;16915;51.466;3.610;2023-07-31T04:58:28;16.00;99.90
30097;DHT22;16915;51.466;3.610;2023-07-31T05:00:54;16.00;99.90
30097;DHT22;16915;51.466;3.610;2023-07-31T05:03:19;16.00;99.90
30097;DHT22;16915;51.466;3.610;2023-07-31T05:05:45;16.10;99.90
30097;DHT22;16915;51.466;3.610;2023-07-31T05:08:10;16.10;99.90
30097;DHT22;16915;51.466;3.610;2023-07-31T05:10:36;16.10;99.90
30097;DHT22;16915;51.466;3.610;2023-07-31T05:13:02;16.10;99.90
30097;DHT22;16915;51.466;3.610;2023-07-31T05:15:28;16.10;99.90
30097;DHT22;16915;51.466;3.610;2023-07-31T05:17:54;16.10;99.90
30097;DHT22;16915;51.466;3.610;2023-07-31T05:20:20;16.10;99.90
30097;DHT22;16915;51.466;3.610;2023-07-31T05:22:45;16.20;99.90
30097;DHT22;16915;51.466;3.610;2023-07-31T05:25:11;16.10;99.90
30097;DHT22;16915;51.466;3.610;2023-07-31T05:27:37;16.20;99.90
30097;DHT22;16915;51.466;3.610;2023-07-31T05:30:03;16.10;99.90
30097;DHT22;16915;51.466;3.610;2023-07-31T05:32:28;16.20;99.90
30097;DHT22;16915;51.466;3.610;2023-07-31T05:34:54;16.20;99.90
30097;DHT22;16915;51.466;3.610;2023-07-31T05:37:20;16.20;99.90
30097;DHT22;16915;51.466;3.610;2023-07-31T05:39:45;16.20;99.90
30097;DHT22;16915;51.466;3.610;2023-07-31T05:42:11;16.30;99.90
30097;DHT22;16915;51.466;3.610;2023-07-31T05:44:36;16.20;99.90
30097;DHT22;16915;51.466;3.610;2023-07-31T05:47:02;16.20;99.90
30097;DHT22;16915;51.466;3.610;2023-07-31T05:49:28;16.20;99.90
30097;DHT22;16915;51.466;3.610;2023-07-31T05:51:53;16.30;99.90
30097;DHT22;16915;51.466;3.610;2023-07-31T05:54:19;16.30;99.90
30097;DHT22;16915;51.466;3.610;2023-07-31T05:56:44;16.20;99.90
30097;DHT22;16915;51.466;3.610;2023-07-31T05:59:12;16.30;99.90
30097;DHT22;16915;51.466;3.610;2023-07-31T06:01:38;16.30;99.90
30097;DHT22;16915;51.466;3.610;2023-07-31T06:04:04;16.30;99.90
30097;DHT22;16915;51.466;3.610;2023-07-31T06:06:30;16.40;99.90
30097;DHT22;16915;51.466;3.610;2023-07-31T06:08:55;16.30;99.90
30097;DHT22;16915;51.466;3.610;2023-07-31T06:11:21;16.40;99.90
30097;DHT22;16915;51.466;3.610;2023-07-31T06:13:47;16.40;99.90
30097;DHT22;16915;51.466;3.610;2023-07-31T06:16:14;16.40;99.90
30097;DHT22;16915;51.466;3.610;2023-07-31T06:18:41;16.40;99.90
30097;DHT22;16915;51.466;3.610;2023-07-31T06:21:06;16.40;99.90
30097;DHT22;16915;51.466;3.610;2023-07-31T06:23:32;16.40;99.90
30097;DHT22;16915;51.466;3.610;2023-07-31T06:25:57;16.40;99.90
30097;DHT22;16915;51.466;3.610;2023-07-31T06:28:30;16.40;99.90
30097;DHT22;16915;51.466;3.610;2023-07-31T06:30:56;16.40;99.90
30097;DHT22;16915;51.466;3.610;2023-07-31T06:33:22;16.40;99.90
30097;DHT22;16915;51.466;3.610;2023-07-31T06:35:47;16.40;99.90
30097;DHT22;16915;51.466;3.610;2023-07-31T06:38:13;16.50;99.90
30097;DHT22;16915;51.466;3.610;2023-07-31T06:40:38;16.50;99.90
30097;DHT22;16915;51.466;3.610;2023-07-31T06:43:04;16.50;99.90
30097;DHT22;16915;51.466;3.610;2023-07-31T06:45:36;16.50;99.90
30097;DHT22;16915;51.466;3.610;2023-07-31T06:48:02;16.50;99.90
30097;DHT22;16915;51.466;3.610;2023-07-31T06:50:32;16.50;99.90
30097;DHT22;16915;51.466;3.610;2023-07-31T06:52:57;16.50;99.90
30097;DHT22;16915;51.466;3.610;2023-07-31T06:55:24;16.50;99.90
30097;DHT22;16915;51.466;3.610;2023-07-31T06:57:52;16.50;99.90
30097;DHT22;16915;51.466;3.610;2023-07-31T07:00:19;16.60;99.90
30097;DHT22;16915;51.466;3.610;2023-07-31T07:02:45;16.60;99.90
30097;DHT22;16915;51.466;3.610;2023-07-31T07:05:13;16.60;99.90
30097;DHT22;16915;51.466;3.610;2023-07-31T07:07:38;16.60;99.90
30097;DHT22;16915;51.466;3.610;2023-07-31T07:10:04;16.60;99.90
30097;DHT22;16915;51.466;3.610;2023-07-31T07:12:31;16.60;99.90
30097;DHT22;16915;51.466;3.610;2023-07-31T07:14:57;16.70;99.90
30097;DHT22;16915;51.466;3.610;2023-07-31T07:17:23;16.70;99.90
30097;DHT22;16915;51.466;3.610;2023-07-31T07:19:49;16.70;99.90
30097;DHT22;16915;51.466;3.610;2023-07-31T07:22:14;16.80;99.90
30097;DHT22;16915;51.466;3.610;2023-07-31T07:24:41;16.80;99.90
30097;DHT22;16915;51.466;3.610;2023-07-31T07:27:07;16.80;99.90
30097;DHT22;16915;51.466;3.610;2023-07-31T07:29:34;16.80;99.90
30097;DHT22;16915;51.466;3.610;2023-07-31T07:32:00;16.80;99.90
30097;DHT22;16915;51.466;3.610;2023-07-31T07:34:27;16.80;99.90
30097;DHT22;16915;51.466;3.610;2023-07-31T07:36:53;16.80;99.90
30097;DHT22;16915;51.466;3.610;2023-07-31T07:39:19;16.80;99.90
30097;DHT22;16915;51.466;3.610;2023-07-31T07:41:46;16.80;99.90
30097;DHT22;16915;51.466;3.610;2023-07-31T07:44:12;16.90;99.90
30097;DHT22;16915;51.466;3.610;2023-07-31T07:46:38;16.90;99.90
30097;DHT22;16915;51.466;3.610;2023-07-31T07:49:04;17.00;99.90
30097;DHT22;16915;51.466;3.610;2023-07-31T07:51:29;17.10;99.90
30097;DHT22;16915;51.466;3.610;2023-07-31T07:53:59;17.10;99.90
30097;DHT22;16915;51.466;3.610;2023-07-31T07:56:26;17.00;99.90
30097;DHT22;16915;51.466;3.610;2023-07-31T07:58:53;17.10;99.90
30097;DHT22;16915;51.466;3.610;2023-07-31T08:01:18;17.20;99.90
30097;DHT22;16915;51.466;3.610;2023-07-31T08:03:44;17.30;99.90
30097;DHT22;16915;51.466;3.610;2023-07-31T08:06:10;17.40;99.90
30097;DHT22;16915;51.466;3.610;2023-07-31T08:08:36;17.50;99.90
30097;DHT22;16915;51.466;3.610;2023-07-31T08:11:02;17.60;99.90
30097;DHT22;16915;51.466;3.610;2023-07-31T08:13:28;17.50;99.90
30097;DHT22;16915;51.466;3.610;2023-07-31T08:15:54;17.50;99.90
30097;DHT22;16915;51.466;3.610;2023-07-31T08:18:20;17.60;99.90
30097;DHT22;16915;51.466;3.610;2023-07-31T08:20:45;17.60;99.90
30097;DHT22;16915;51.466;3.610;2023-07-31T08:23:11;17.70;99.90
30097;DHT22;16915;51.466;3.610;2023-07-31T08:25:37;17.80;99.90
30097;DHT22;16915;51.466;3.610;2023-07-31T08:28:03;17.90;99.90
30097;DHT22;16915;51.466;3.610;2023-07-31T08:30:29;17.90;99.90
30097;DHT22;16915;51.466;3.610;2023-07-31T08:32:55;17.90;99.90
30097;DHT22;16915;51.466;3.610;2023-07-31T08:35:21;17.80;99.90
30097;DHT22;16915;51.466;3.610;2023-07-31T08:37:47;17.70;99.90
30097;DHT22;16915;51.466;3.610;2023-07-31T08:40:12;17.60;99.90
30097;DHT22;16915;51.466;3.610;2023-07-31T08:42:49;17.50;99.90
30097;DHT22;16915;51.466;3.610;2023-07-31T08:45:17;17.50;99.90
30097;DHT22;16915;51.466;3.610;2023-07-31T08:47:50;17.40;99.90
30097;DHT22;16915;51.466;3.610;2023-07-31T08:50:18;17.40;99.90
30097;DHT22;16915;51.466;3.610;2023-07-31T08:52:45;17.40;99.90
30097;DHT22;16915;51.466;3.610;2023-07-31T08:55:11;17.50;99.90
30097;DHT22;16915;51.466;3.610;2023-07-31T08:57:38;17.50;99.90
30097;DHT22;16915;51.466;3.610;2023-07-31T09:00:08;17.50;99.90
30097;DHT22;16915;51.466;3.610;2023-07-31T09:05:16;17.60;99.90
30097;DHT22;16915;51.466;3.610;2023-07-31T09:07:44;17.60;99.90
30097;DHT22;16915;51.466;3.610;2023-07-31T09:10:12;17.70;99.90
30097;DHT22;16915;51.466;3.610;2023-07-31T09:12:38;17.70;99.90
30097;DHT22;16915;51.466;3.610;2023-07-31T09:15:04;17.80;99.90
30097;DHT22;16915;51.466;3.610;2023-07-31T09:17:34;18.00;99.90
30097;DHT22;16915;51.466;3.610;2023-07-31T09:20:19;17.90;99.90
30097;DHT22;16915;51.466;3.610;2023-07-31T09:22:47;17.90;99.90
30097;DHT22;16915;51.466;3.610;2023-07-31T09:25:23;17.80;99.90
30097;DHT22;16915;51.466;3.610;2023-07-31T09:28:04;17.80;99.90
30097;DHT22;16915;51.466;3.610;2023-07-31T09:30:31;17.80;99.90
30097;DHT22;16915;51.466;3.610;2023-07-31T09:33:02;17.80;99.90
30097;DHT22;16915;51.466;3.610;2023-07-31T09:35:33;17.80;99.90
30097;DHT22;16915;51.466;3.610;2023-07-31T09:38:07;17.80;99.90
30097;DHT22;16915;51.466;3.610;2023-07-31T09:40:38;17.80;99.90
30097;DHT22;16915;51.466;3.610;2023-07-31T09:43:09;17.90;99.90
30097;DHT22;16915;51.466;3.610;2023-07-31T09:45:37;18.00;99.90
30097;DHT22;16915;51.466;3.610;2023-07-31T09:48:08;18.00;99.90
30097;DHT22;16915;51.466;3.610;2023-07-31T09:50:39;18.10;99.90
30097;DHT22;16915;51.466;3.610;2023-07-31T09:53:07;18.20;99.90
30097;DHT22;16915;51.466;3.610;2023-07-31T09:55:33;18.30;99.90
30097;DHT22;16915;51.466;3.610;2023-07-31T09:58:04;18.30;99.90
30097;DHT22;16915;51.466;3.610;2023-07-31T10:00:30;18.30;99.90
30097;DHT22;16915;51.466;3.610;2023-07-31T10:02:59;18.20;99.90
30097;DHT22;16915;51.466;3.610;2023-07-31T10:05:31;18.20;99.90
30097;DHT22;16915;51.466;3.610;2023-07-31T10:07:58;18.10;99.90
30097;DHT22;16915;51.466;3.610;2023-07-31T10:10:25;18.20;99.90
30097;DHT22;16915;51.466;3.610;2023-07-31T10:12:52;18.30;99.90
30097;DHT22;16915;51.466;3.610;2023-07-31T10:15:18;18.40;99.90
30097;DHT22;16915;51.466;3.610;2023-07-31T10:17:46;18.50;99.90
30097;DHT22;16915;51.466;3.610;2023-07-31T10:20:12;18.60;99.90
30097;DHT22;16915;51.466;3.610;2023-07-31T10:22:39;18.80;99.90
30097;DHT22;16915;51.466;3.610;2023-07-31T10:25:08;18.90;99.90
30097;DHT22;16915;51.466;3.610;2023-07-31T10:27:35;19.10;99.90
30097;DHT22;16915;51.466;3.610;2023-07-31T10:30:03;19.20;99.90
30097;DHT22;16915;51.466;3.610;2023-07-31T10:32:30;19.50;99.90
30097;DHT22;16915;51.466;3.610;2023-07-31T10:34:56;19.50;99.90
30097;DHT22;16915;51.466;3.610;2023-07-31T10:37:23;19.40;99.90
30097;DHT22;16915;51.466;3.610;2023-07-31T10:42:37;19.20;99.90
30097;DHT22;16915;51.466;3.610;2023-07-31T10:45:06;19.30;99.90
30097;DHT22;16915;51.466;3.610;2023-07-31T10:47:42;19.20;99.90
30097;DHT22;16915;51.466;3.610;2023-07-31T10:50:18;19.10;99.90
30097;DHT22;16915;51.466;3.610;2023-07-31T10:52:52;19.00;99.90
30097;DHT22;16915;51.466;3.610;2023-07-31T10:55:41;19.00;99.90
30097;DHT22;16915;51.466;3.610;2023-07-31T10:58:14;19.00;99.90
30097;DHT22;16915;51.466;3.610;2023-07-31T11:00:43;18.90;99.90
30097;DHT22;16915;51.466;3.610;2023-07-31T11:03:12;19.00;99.90
30097;DHT22;16915;51.466;3.610;2023-07-31T11:06:01;19.00;99.90
30097;DHT22;16915;51.466;3.610;2023-07-31T11:08:33;19.00;99.90
30097;DHT22;16915;51.466;3.610;2023-07-31T11:13:32;18.90;99.90
30097;DHT22;16915;51.466;3.610;2023-07-31T11:15:58;19.00;99.90
30097;DHT22;16915;51.466;3.610;2023-07-31T11:18:26;19.10;99.90
30097;DHT22;16915;51.466;3.610;2023-07-31T11:20:52;19.10;99.90
30097;DHT22;16915;51.466;3.610;2023-07-31T11:23:19;19.10;99.90
30097;DHT22;16915;51.466;3.610;2023-07-31T11:25:45;19.10;99.90
30097;DHT22;16915;51.466;3.610;2023-07-31T11:28:13;19.10;99.90
30097;DHT22;16915;51.466;3.610;2023-07-31T11:30:40;19.10;99.90
30097;DHT22;16915;51.466;3.610;2023-07-31T11:33:11;19.00;99.90
30097;DHT22;16915;51.466;3.610;2023-07-31T11:35:44;19.00;99.90
30097;DHT22;16915;51.466;3.610;2023-07-31T11:38:21;19.00;99.90
30097;DHT22;16915;51.466;3.610;2023-07-31T11:40:48;19.00;99.90
30097;DHT22;16915;51.466;3.610;2023-07-31T11:43:14;19.10;99.90
30097;DHT22;16915;51.466;3.610;2023-07-31T11:45:46;19.20;99.90
30097;DHT22;16915;51.466;3.610;2023-07-31T11:48:22;19.40;99.90
30097;DHT22;16915;51.466;3.610;2023-07-31T11:50:50;19.40;99.90
30097;DHT22;16915;51.466;3.610;2023-07-31T11:53:18;19.50;99.90
30097;DHT22;16915;51.466;3.610;2023-07-31T11:55:44;19.40;99.90
30097;DHT22;16915;51.466;3.610;2023-07-31T11:58:10;19.40;99.90
30097;DHT22;16915;51.466;3.610;2023-07-31T12:00:36;19.40;99.90
30097;DHT22;16915;51.466;3.610;2023-07-31T12:03:02;19.20;99.90
30097;DHT22;16915;51.466;3.610;2023-07-31T12:05:28;19.10;99.90
30097;DHT22;16915;51.466;3.610;2023-07-31T12:07:54;19.00;99.90
30097;DHT22;16915;51.466;3.610;2023-07-31T12:10:32;19.00;99.90
30097;DHT22;16915;51.466;3.610;2023-07-31T12:13:03;19.00;99.90
30097;DHT22;16915;51.466;3.610;2023-07-31T12:15:37;19.00;99.90
30097;DHT22;16915;51.466;3.610;2023-07-31T12:18:09;18.90;99.90
30097;DHT22;16915;51.466;3.610;2023-07-31T12:20:35;18.90;99.90
30097;DHT22;16915;51.466;3.610;2023-07-31T12:23:01;18.80;99.90
30097;DHT22;16915;51.466;3.610;2023-07-31T12:25:32;18.80;99.90
30097;DHT22;16915;51.466;3.610;2023-07-31T12:28:03;18.80;99.90
30097;DHT22;16915;51.466;3.610;2023-07-31T12:30:32;18.80;99.90
30097;DHT22;16915;51.466;3.610;2023-07-31T12:33:15;18.80;99.90
30097;DHT22;16915;51.466;3.610;2023-07-31T12:35:45;18.80;99.90
30097;DHT22;16915;51.466;3.610;2023-07-31T12:38:13;18.70;99.90
30097;DHT22;16915;51.466;3.610;2023-07-31T12:40:39;18.70;99.90
30097;DHT22;16915;51.466;3.610;2023-07-31T12:43:06;18.70;99.90
30097;DHT22;16915;51.466;3.610;2023-07-31T12:45:32;18.70;99.90
30097;DHT22;16915;51.466;3.610;2023-07-31T12:47:58;18.60;99.90
30097;DHT22;16915;51.466;3.610;2023-07-31T12:50:24;18.70;99.90
30097;DHT22;16915;51.466;3.610;2023-07-31T12:52:51;18.70;99.90
30097;DHT22;16915;51.466;3.610;2023-07-31T12:55:16;18.70;99.90
30097;DHT22;16915;51.466;3.610;2023-07-31T12:57:44;18.90;99.90
30097;DHT22;16915;51.466;3.610;2023-07-31T13:00:10;18.90;99.90
30097;DHT22;16915;51.466;3.610;2023-07-31T13:02:36;19.00;99.90
30097;DHT22;16915;51.466;3.610;2023-07-31T13:05:01;18.90;99.90
30097;DHT22;16915;51.466;3.610;2023-07-31T13:07:27;18.80;99.90
30097;DHT22;16915;51.466;3.610;2023-07-31T13:09:52;18.80;99.90
30097;DHT22;16915;51.466;3.610;2023-07-31T13:12:18;18.70;99.90
30097;DHT22;16915;51.466;3.610;2023-07-31T13:14:43;18.60;99.90
30097;DHT22;16915;51.466;3.610;2023-07-31T13:17:09;18.60;99.90
30097;DHT22;16915;51.466;3.610;2023-07-31T13:19:34;18.60;99.90
30097;DHT22;16915;51.466;3.610;2023-07-31T13:22:00;18.60;99.90
30097;DHT22;16915;51.466;3.610;2023-07-31T13:24:26;18.60;99.90
30097;DHT22;16915;51.466;3.610;2023-07-31T13:26:51;18.60;99.90
30097;DHT22;16915;51.466;3.610;2023-07-31T13:29:17;18.50;99.90
30097;DHT22;16915;51.466;3.610;2023-07-31T13:31:42;18.50;99.90
30097;DHT22;16915;51.466;3.610;2023-07-31T13:34:08;18.50;99.90
30097;DHT22;16915;51.466;3.610;2023-07-31T13:36:33;18.50;99.90
30097;DHT22;16915;51.466;3.610;2023-07-31T13:39:00;18.50;99.90
30097;DHT22;16915;51.466;3.610;2023-07-31T13:41:26;18.30;99.90
30097;DHT22;16915;51.466;3.610;2023-07-31T13:43:51;18.30;99.90
30097;DHT22;16915;51.466;3.610;2023-07-31T13:46:17;18.30;99.90
30097;DHT22;16915;51.466;3.610;2023-07-31T13:48:43;18.30;99.90
30097;DHT22;16915;51.466;3.610;2023-07-31T13:51:08;18.30;99.90
30097;DHT22;16915;51.466;3.610;2023-07-31T13:53:34;18.30;99.90
30097;DHT22;16915;51.466;3.610;2023-07-31T13:55:59;18.30;99.90
30097;DHT22;16915;51.466;3.610;2023-07-31T13:58:25;18.30;99.90
30097;DHT22;16915;51.466;3.610;2023-07-31T14:00:51;18.20;99.90
30097;DHT22;16915;51.466;3.610;2023-07-31T14:03:16;18.20;99.90
30097;DHT22;16915;51.466;3.610;2023-07-31T14:05:42;18.10;99.90
30097;DHT22;16915;51.466;3.610;2023-07-31T14:08:07;18.00;99.90
30097;DHT22;16915;51.466;3.610;2023-07-31T14:10:33;18.00;99.90
30097;DHT22;16915;51.466;3.610;2023-07-31T14:12:58;18.00;99.90
30097;DHT22;16915;51.466;3.610;2023-07-31T14:15:24;18.00;99.90
30097;DHT22;16915;51.466;3.610;2023-07-31T14:17:50;17.90;99.90
30097;DHT22;16915;51.466;3.610;2023-07-31T14:20:15;17.90;99.90
30097;DHT22;16915;51.466;3.610;2023-07-31T14:22:41;17.90;99.90
30097;DHT22;16915;51.466;3.610;2023-07-31T14:25:07;18.00;99.90
30097;DHT22;16915;51.466;3.610;2023-07-31T14:27:35;17.90;99.90
30097;DHT22;16915;51.466;3.610;2023-07-31T14:30:01;17.90;99.90
30097;DHT22;16915;51.466;3.610;2023-07-31T14:32:26;18.00;99.90
30097;DHT22;16915;51.466;3.610;2023-07-31T14:34:52;18.00;99.90
30097;DHT22;16915;51.466;3.610;2023-07-31T14:37:18;17.90;99.90
30097;DHT22;16915;51.466;3.610;2023-07-31T14:39:43;18.00;99.90
30097;DHT22;16915;51.466;3.610;2023-07-31T14:42:09;18.00;99.90
30097;DHT22;16915;51.466;3.610;2023-07-31T14:44:35;18.00;99.90
30097;DHT22;16915;51.466;3.610;2023-07-31T14:47:00;18.10;99.90
30097;DHT22;16915;51.466;3.610;2023-07-31T14:49:26;18.10;99.90
30097;DHT22;16915;51.466;3.610;2023-07-31T14:51:53;18.10;99.90
30097;DHT22;16915;51.466;3.610;2023-07-31T14:54:19;18.10;99.90
30097;DHT22;16915;51.466;3.610;2023-07-31T14:56:45;18.10;99.90
30097;DHT22;16915;51.466;3.610;2023-07-31T14:59:10;18.10;99.90
30097;DHT22;16915;51.466;3.610;2023-07-31T15:01:37;18.10;99.90
30097;DHT22;16915;51.466;3.610;2023-07-31T15:04:02;18.10;99.90
30097;DHT22;16915;51.466;3.610;2023-07-31T15:06:28;18.10;99.90
30097;DHT22;16915;51.466;3.610;2023-07-31T15:08:53;18.10;99.90
30097;DHT22;16915;51.466;3.610;2023-07-31T15:11:19;18.10;99.90
30097;DHT22;16915;51.466;3.610;2023-07-31T15:13:45;18.10;99.90
30097;DHT22;16915;51.466;3.610;2023-07-31T15:16:10;18.10;99.90
30097;DHT22;16915;51.466;3.610;2023-07-31T15:18:36;18.10;99.90
30097;DHT22;16915;51.466;3.610;2023-07-31T15:21:02;18.10;99.90
30097;DHT22;16915;51.466;3.610;2023-07-31T15:23:27;18.10;99.90
30097;DHT22;16915;51.466;3.610;2023-07-31T15:25:53;18.10;99.90
30097;DHT22;16915;51.466;3.610;2023-07-31T15:28:18;18.10;99.90
30097;DHT22;16915;51.466;3.610;2023-07-31T15:30:44;18.10;99.90
30097;DHT22;16915;51.466;3.610;2023-07-31T15:33:10;18.10;99.90
30097;DHT22;16915;51.466;3.610;2023-07-31T15:35:36;18.10;99.90
30097;DHT22;16915;51.466;3.610;2023-07-31T15:38:01;18.10;99.90
30097;DHT22;16915;51.466;3.610;2023-07-31T15:40:27;18.20;99.90